sensor_id;sensor_type;location;lat;lon;timestamp;P1;durP1;ratioP1;P2;durP2;ratioP2
2396;SDS011;1209;48.410;9.054;2023-02-28T00:02:24;3.50;;;3.20;;
2396;SDS011;1209;48.410;9.054;2023-02-28T00:04:49;3.40;;;3.10;;
2396;SDS011;1209;48.410;9.054;2023-02-28T00:07:18;3.03;;;2.78;;
2396;SDS011;1209;48.410;9.054;2023-02-28T00:09:43;4.70;;;3.83;;
2396;SDS011;1209;48.410;9.054;2023-02-28T00:12:09;3.30;;;3.00;;
2396;SDS011;1209;48.410;9.054;2023-02-28T00:14:35;4.43;;;3.28;;
2396;SDS011;1209;48.410;9.054;2023-02-28T00:17:01;3.70;;;3.23;;
2396;SDS011;1209;48.410;9.054;2023-02-28T00:19:26;3.67;;;3.37;;
2396;SDS011;1209;48.410;9.054;2023-02-28T00:21:52;4.70;;;2.97;;
2396;SDS011;1209;48.410;9.054;2023-02-28T00:24:17;4.60;;;3.80;;
2396;SDS011;1209;48.410;9.054;2023-02-28T00:26:42;4.93;;;3.67;;
2396;SDS011;1209;48.410;9.054;2023-02-28T00:29:07;3.40;;;3.20;;
2396;SDS011;1209;48.410;9.054;2023-02-28T00:31:33;8.00;;;3.17;;
2396;SDS011;1209;48.410;9.054;2023-02-28T00:33:58;3.00;;;2.90;;
2396;SDS011;1209;48.410;9.054;2023-02-28T00:36:23;3.97;;;2.80;;
2396;SDS011;1209;48.410;9.054;2023-02-28T00:38:49;5.90;;;3.50;;
2396;SDS011;1209;48.410;9.054;2023-02-28T00:41:14;5.33;;;4.10;;
2396;SDS011;1209;48.410;9.054;2023-02-28T00:43:39;3.50;;;3.23;;
2396;SDS011;1209;48.410;9.054;2023-02-28T00:46:05;4.57;;;3.30;;
2396;SDS011;1209;48.410;9.054;2023-02-28T00:48:30;4.67;;;3.60;;
2396;SDS011;1209;48.410;9.054;2023-02-28T00:50:56;3.10;;;2.90;;
2396;SDS011;1209;48.410;9.054;2023-02-28T00:53:21;9.90;;;4.10;;
2396;SDS011;1209;48.410;9.054;2023-02-28T00:55:47;3.70;;;3.17;;
2396;SDS011;1209;48.410;9.054;2023-02-28T00:58:13;5.28;;;3.30;;
2396;SDS011;1209;48.410;9.054;2023-02-28T01:00:38;4.07;;;3.73;;
2396;SDS011;1209;48.410;9.054;2023-02-28T01:03:04;6.23;;;3.20;;
2396;SDS011;1209;48.410;9.054;2023-02-28T01:05:29;6.50;;;3.07;;
2396;SDS011;1209;48.410;9.054;2023-02-28T01:07:54;6.10;;;3.30;;
2396;SDS011;1209;48.410;9.054;2023-02-28T01:10:19;3.80;;;3.53;;
2396;SDS011;1209;48.410;9.054;2023-02-28T01:12:45;3.63;;;3.13;;
2396;SDS011;1209;48.410;9.054;2023-02-28T01:15:11;4.83;;;3.50;;
2396;SDS011;1209;48.410;9.054;2023-02-28T01:17:36;4.27;;;3.60;;
2396;SDS011;1209;48.410;9.054;2023-02-28T01:20:02;3.37;;;3.10;;
2396;SDS011;1209;48.410;9.054;2023-02-28T01:22:28;3.50;;;3.25;;
2396;SDS011;1209;48.410;9.054;2023-02-28T01:24:53;4.07;;;3.60;;
2396;SDS011;1209;48.410;9.054;2023-02-28T01:27:18;4.50;;;4.03;;
2396;SDS011;1209;48.410;9.054;2023-02-28T01:29:44;2.93;;;2.73;;
2396;SDS011;1209;48.410;9.054;2023-02-28T01:32:09;4.43;;;3.40;;
2396;SDS011;1209;48.410;9.054;2023-02-28T01:34:35;4.00;;;3.67;;
2396;SDS011;1209;48.410;9.054;2023-02-28T01:37:00;4.37;;;3.10;;
2396;SDS011;1209;48.410;9.054;2023-02-28T01:39:26;3.40;;;3.10;;
2396;SDS011;1209;48.410;9.054;2023-02-28T01:41:51;3.37;;;3.17;;
2396;SDS011;1209;48.410;9.054;2023-02-28T01:47:19;7.43;;;3.97;;
2396;SDS011;1209;48.410;9.054;2023-02-28T01:49:46;3.67;;;3.35;;
2396;SDS011;1209;48.410;9.054;2023-02-28T01:52:12;5.25;;;3.33;;
2396;SDS011;1209;48.410;9.054;2023-02-28T01:54:43;8.27;;;4.72;;
2396;SDS011;1209;48.410;9.054;2023-02-28T01:57:14;5.43;;;3.00;;
2396;SDS011;1209;48.410;9.054;2023-02-28T01:59:43;4.05;;;3.40;;
2396;SDS011;1209;48.410;9.054;2023-02-28T02:02:16;5.10;;;3.83;;
2396;SDS011;1209;48.410;9.054;2023-02-28T02:07:29;5.05;;;4.25;;
2396;SDS011;1209;48.410;9.054;2023-02-28T02:10:06;3.50;;;3.20;;
2396;SDS011;1209;48.410;9.054;2023-02-28T02:12:47;4.75;;;3.50;;
2396;SDS011;1209;48.410;9.054;2023-02-28T02:15:34;3.90;;;3.53;;
2396;SDS011;1209;48.410;9.054;2023-02-28T02:18:18;4.53;;;4.07;;
2396;SDS011;1209;48.410;9.054;2023-02-28T02:21:25;4.85;;;3.75;;
2396;SDS011;1209;48.410;9.054;2023-02-28T02:38:10;4.70;;;4.28;;
2396;SDS011;1209;48.410;9.054;2023-02-28T02:41:08;6.53;;;3.40;;
2396;SDS011;1209;48.410;9.054;2023-02-28T02:43:36;4.35;;;3.53;;
2396;SDS011;1209;48.410;9.054;2023-02-28T02:46:07;3.65;;;3.15;;
2396;SDS011;1209;48.410;9.054;2023-02-28T02:48:38;3.90;;;3.60;;
2396;SDS011;1209;48.410;9.054;2023-02-28T02:51:09;3.10;;;2.90;;
2396;SDS011;1209;48.410;9.054;2023-02-28T02:53:41;4.10;;;3.45;;
2396;SDS011;1209;48.410;9.054;2023-02-28T02:56:11;5.78;;;4.00;;
2396;SDS011;1209;48.410;9.054;2023-02-28T02:58:40;3.00;;;2.80;;
2396;SDS011;1209;48.410;9.054;2023-02-28T03:01:10;4.45;;;3.70;;
2396;SDS011;1209;48.410;9.054;2023-02-28T03:03:41;5.65;;;3.28;;
2396;SDS011;1209;48.410;9.054;2023-02-28T03:06:07;5.25;;;2.60;;
2396;SDS011;1209;48.410;9.054;2023-02-28T03:08:34;4.72;;;3.78;;
2396;SDS011;1209;48.410;9.054;2023-02-28T03:11:02;3.60;;;3.33;;
2396;SDS011;1209;48.410;9.054;2023-02-28T03:16:44;3.67;;;3.13;;
2396;SDS011;1209;48.410;9.054;2023-02-28T03:25:13;3.40;;;3.17;;
2396;SDS011;1209;48.410;9.054;2023-02-28T03:27:53;6.10;;;3.65;;
2396;SDS011;1209;48.410;9.054;2023-02-28T03:36:21;5.78;;;4.35;;
2396;SDS011;1209;48.410;9.054;2023-02-28T03:42:02;4.28;;;3.92;;
2396;SDS011;1209;48.410;9.054;2023-02-28T03:47:09;6.38;;;4.13;;
2396;SDS011;1209;48.410;9.054;2023-02-28T03:49:50;3.70;;;3.40;;
2396;SDS011;1209;48.410;9.054;2023-02-28T03:52:21;3.92;;;3.40;;
2396;SDS011;1209;48.410;9.054;2023-02-28T03:54:52;3.85;;;3.55;;
2396;SDS011;1209;48.410;9.054;2023-02-28T03:57:24;3.67;;;3.38;;
2396;SDS011;1209;48.410;9.054;2023-02-28T04:00:02;5.25;;;3.92;;
2396;SDS011;1209;48.410;9.054;2023-02-28T04:02:48;4.47;;;3.88;;
2396;SDS011;1209;48.410;9.054;2023-02-28T04:05:18;3.25;;;3.03;;
2396;SDS011;1209;48.410;9.054;2023-02-28T04:07:44;4.07;;;3.40;;
2396;SDS011;1209;48.410;9.054;2023-02-28T04:10:10;3.10;;;2.90;;
2396;SDS011;1209;48.410;9.054;2023-02-28T04:12:36;4.10;;;3.72;;
2396;SDS011;1209;48.410;9.054;2023-02-28T04:15:02;6.80;;;3.80;;
2396;SDS011;1209;48.410;9.054;2023-02-28T04:17:27;5.13;;;4.10;;
2396;SDS011;1209;48.410;9.054;2023-02-28T04:19:52;6.50;;;4.33;;
2396;SDS011;1209;48.410;9.054;2023-02-28T04:22:21;4.00;;;3.05;;
2396;SDS011;1209;48.410;9.054;2023-02-28T04:24:46;4.03;;;3.60;;
2396;SDS011;1209;48.410;9.054;2023-02-28T04:27:12;4.60;;;4.20;;
2396;SDS011;1209;48.410;9.054;2023-02-28T04:29:37;9.13;;;4.70;;
2396;SDS011;1209;48.410;9.054;2023-02-28T04:32:02;4.13;;;3.60;;
2396;SDS011;1209;48.410;9.054;2023-02-28T04:34:29;5.07;;;4.67;;
2396;SDS011;1209;48.410;9.054;2023-02-28T04:36:56;5.10;;;3.80;;
2396;SDS011;1209;48.410;9.054;2023-02-28T04:39:22;6.10;;;4.63;;
2396;SDS011;1209;48.410;9.054;2023-02-28T04:41:48;6.50;;;3.90;;
2396;SDS011;1209;48.410;9.054;2023-02-28T04:44:13;3.70;;;3.43;;
2396;SDS011;1209;48.410;9.054;2023-02-28T04:46:39;5.28;;;4.10;;
2396;SDS011;1209;48.410;9.054;2023-02-28T04:49:05;7.47;;;4.23;;
2396;SDS011;1209;48.410;9.054;2023-02-28T04:51:30;4.63;;;3.67;;
2396;SDS011;1209;48.410;9.054;2023-02-28T04:53:55;4.30;;;3.73;;
2396;SDS011;1209;48.410;9.054;2023-02-28T04:56:21;6.93;;;4.53;;
2396;SDS011;1209;48.410;9.054;2023-02-28T04:58:47;4.53;;;4.13;;
2396;SDS011;1209;48.410;9.054;2023-02-28T05:01:16;4.53;;;3.80;;
2396;SDS011;1209;48.410;9.054;2023-02-28T05:03:44;4.45;;;4.05;;
2396;SDS011;1209;48.410;9.054;2023-02-28T05:06:10;4.30;;;3.90;;
2396;SDS011;1209;48.410;9.054;2023-02-28T05:08:36;7.57;;;4.78;;
2396;SDS011;1209;48.410;9.054;2023-02-28T05:11:01;4.97;;;4.57;;
2396;SDS011;1209;48.410;9.054;2023-02-28T05:13:28;5.38;;;4.88;;
2396;SDS011;1209;48.410;9.054;2023-02-28T05:15:54;6.93;;;4.60;;
2396;SDS011;1209;48.410;9.054;2023-02-28T05:18:19;7.03;;;4.53;;
2396;SDS011;1209;48.410;9.054;2023-02-28T05:20:45;5.17;;;4.47;;
2396;SDS011;1209;48.410;9.054;2023-02-28T05:23:11;4.87;;;4.37;;
2396;SDS011;1209;48.410;9.054;2023-02-28T05:25:38;6.00;;;4.72;;
2396;SDS011;1209;48.410;9.054;2023-02-28T05:28:03;8.27;;;5.40;;
2396;SDS011;1209;48.410;9.054;2023-02-28T05:30:29;7.40;;;5.30;;
2396;SDS011;1209;48.410;9.054;2023-02-28T05:32:54;4.80;;;4.40;;
2396;SDS011;1209;48.410;9.054;2023-02-28T05:35:20;8.00;;;4.30;;
2396;SDS011;1209;48.410;9.054;2023-02-28T05:37:45;7.93;;;4.77;;
2396;SDS011;1209;48.410;9.054;2023-02-28T05:40:10;7.53;;;4.47;;
2396;SDS011;1209;48.410;9.054;2023-02-28T05:42:36;6.33;;;4.20;;
2396;SDS011;1209;48.410;9.054;2023-02-28T05:45:02;6.67;;;4.90;;
2396;SDS011;1209;48.410;9.054;2023-02-28T05:47:28;5.03;;;4.65;;
2396;SDS011;1209;48.410;9.054;2023-02-28T05:49:53;5.20;;;4.63;;
2396;SDS011;1209;48.410;9.054;2023-02-28T05:52:19;7.93;;;4.27;;
2396;SDS011;1209;48.410;9.054;2023-02-28T05:54:45;6.83;;;4.43;;
2396;SDS011;1209;48.410;9.054;2023-02-28T05:57:11;6.40;;;4.43;;
2396;SDS011;1209;48.410;9.054;2023-02-28T05:59:36;5.77;;;4.83;;
2396;SDS011;1209;48.410;9.054;2023-02-28T06:02:04;6.47;;;5.05;;
2396;SDS011;1209;48.410;9.054;2023-02-28T06:04:31;6.70;;;5.07;;
2396;SDS011;1209;48.410;9.054;2023-02-28T06:06:56;5.27;;;4.60;;
2396;SDS011;1209;48.410;9.054;2023-02-28T06:09:22;7.33;;;4.70;;
2396;SDS011;1209;48.410;9.054;2023-02-28T06:11:47;8.33;;;5.10;;
2396;SDS011;1209;48.410;9.054;2023-02-28T06:14:16;4.60;;;4.20;;
2396;SDS011;1209;48.410;9.054;2023-02-28T06:16:43;6.43;;;4.80;;
2396;SDS011;1209;48.410;9.054;2023-02-28T06:19:08;9.23;;;5.17;;
2396;SDS011;1209;48.410;9.054;2023-02-28T06:21:35;4.80;;;4.30;;
2396;SDS011;1209;48.410;9.054;2023-02-28T06:24:00;6.10;;;5.50;;
2396;SDS011;1209;48.410;9.054;2023-02-28T06:26:26;8.17;;;5.10;;
2396;SDS011;1209;48.410;9.054;2023-02-28T06:28:51;5.10;;;4.60;;
2396;SDS011;1209;48.410;9.054;2023-02-28T06:31:17;5.27;;;4.80;;
2396;SDS011;1209;48.410;9.054;2023-02-28T06:33:43;5.53;;;4.95;;
2396;SDS011;1209;48.410;9.054;2023-02-28T06:36:11;8.48;;;5.00;;
2396;SDS011;1209;48.410;9.054;2023-02-28T06:38:38;9.00;;;4.85;;
2396;SDS011;1209;48.410;9.054;2023-02-28T06:41:04;4.70;;;4.30;;
2396;SDS011;1209;48.410;9.054;2023-02-28T06:43:31;6.00;;;5.05;;
2396;SDS011;1209;48.410;9.054;2023-02-28T06:45:59;7.70;;;4.78;;
2396;SDS011;1209;48.410;9.054;2023-02-28T06:48:26;7.22;;;5.75;;
2396;SDS011;1209;48.410;9.054;2023-02-28T06:50:52;8.13;;;5.10;;
2396;SDS011;1209;48.410;9.054;2023-02-28T06:53:17;5.60;;;4.90;;
2396;SDS011;1209;48.410;9.054;2023-02-28T06:55:43;6.03;;;4.83;;
2396;SDS011;1209;48.410;9.054;2023-02-28T06:58:08;7.63;;;4.93;;
2396;SDS011;1209;48.410;9.054;2023-02-28T07:00:42;6.63;;;5.90;;
2396;SDS011;1209;48.410;9.054;2023-02-28T07:03:08;7.72;;;4.85;;
2396;SDS011;1209;48.410;9.054;2023-02-28T07:05:34;5.70;;;4.97;;
2396;SDS011;1209;48.410;9.054;2023-02-28T07:08:01;5.80;;;4.50;;
2396;SDS011;1209;48.410;9.054;2023-02-28T07:10:26;9.63;;;5.57;;
2396;SDS011;1209;48.410;9.054;2023-02-28T07:12:52;11.13;;;5.17;;
2396;SDS011;1209;48.410;9.054;2023-02-28T07:15:17;6.30;;;4.60;;
2396;SDS011;1209;48.410;9.054;2023-02-28T07:17:42;8.40;;;5.20;;
2396;SDS011;1209;48.410;9.054;2023-02-28T07:20:08;5.10;;;4.60;;
2396;SDS011;1209;48.410;9.054;2023-02-28T07:22:33;8.23;;;5.13;;
2396;SDS011;1209;48.410;9.054;2023-02-28T07:24:59;7.50;;;6.17;;
2396;SDS011;1209;48.410;9.054;2023-02-28T07:27:24;6.80;;;6.10;;
2396;SDS011;1209;48.410;9.054;2023-02-28T07:29:50;10.53;;;5.20;;
2396;SDS011;1209;48.410;9.054;2023-02-28T07:32:16;7.55;;;5.72;;
2396;SDS011;1209;48.410;9.054;2023-02-28T07:34:41;8.00;;;6.30;;
2396;SDS011;1209;48.410;9.054;2023-02-28T07:37:07;10.50;;;6.03;;
2396;SDS011;1209;48.410;9.054;2023-02-28T07:39:32;9.30;;;6.30;;
2396;SDS011;1209;48.410;9.054;2023-02-28T07:41:57;11.80;;;7.43;;
2396;SDS011;1209;48.410;9.054;2023-02-28T07:44:24;7.60;;;6.47;;
2396;SDS011;1209;48.410;9.054;2023-02-28T07:46:50;11.77;;;6.27;;
2396;SDS011;1209;48.410;9.054;2023-02-28T07:49:15;8.17;;;6.10;;
2396;SDS011;1209;48.410;9.054;2023-02-28T07:51:40;6.43;;;5.20;;
2396;SDS011;1209;48.410;9.054;2023-02-28T07:54:06;6.90;;;4.80;;
2396;SDS011;1209;48.410;9.054;2023-02-28T07:56:32;10.07;;;6.15;;
2396;SDS011;1209;48.410;9.054;2023-02-28T07:58:58;7.97;;;5.40;;
2396;SDS011;1209;48.410;9.054;2023-02-28T08:01:23;8.30;;;5.63;;
2396;SDS011;1209;48.410;9.054;2023-02-28T08:03:48;10.77;;;6.13;;
2396;SDS011;1209;48.410;9.054;2023-02-28T08:06:20;7.53;;;6.43;;
2396;SDS011;1209;48.410;9.054;2023-02-28T08:08:47;7.88;;;6.10;;
2396;SDS011;1209;48.410;9.054;2023-02-28T08:11:14;8.52;;;6.60;;
2396;SDS011;1209;48.410;9.054;2023-02-28T08:13:40;12.18;;;7.10;;
2396;SDS011;1209;48.410;9.054;2023-02-28T08:16:07;7.60;;;6.20;;
2396;SDS011;1209;48.410;9.054;2023-02-28T08:18:32;10.90;;;6.53;;
2396;SDS011;1209;48.410;9.054;2023-02-28T08:20:58;9.37;;;6.70;;
2396;SDS011;1209;48.410;9.054;2023-02-28T08:23:24;10.40;;;7.17;;
2396;SDS011;1209;48.410;9.054;2023-02-28T08:25:52;6.60;;;5.87;;
2396;SDS011;1209;48.410;9.054;2023-02-28T08:28:21;11.90;;;7.95;;
2396;SDS011;1209;48.410;9.054;2023-02-28T08:30:47;11.02;;;6.75;;
2396;SDS011;1209;48.410;9.054;2023-02-28T08:33:12;11.47;;;8.10;;
2396;SDS011;1209;48.410;9.054;2023-02-28T08:35:37;10.40;;;5.93;;
2396;SDS011;1209;48.410;9.054;2023-02-28T08:38:03;11.47;;;6.90;;
2396;SDS011;1209;48.410;9.054;2023-02-28T08:40:28;11.33;;;6.27;;
2396;SDS011;1209;48.410;9.054;2023-02-28T08:42:53;20.93;;;8.67;;
2396;SDS011;1209;48.410;9.054;2023-02-28T08:45:18;9.13;;;7.77;;
2396;SDS011;1209;48.410;9.054;2023-02-28T08:47:44;10.33;;;6.37;;
2396;SDS011;1209;48.410;9.054;2023-02-28T08:50:09;6.90;;;5.37;;
2396;SDS011;1209;48.410;9.054;2023-02-28T08:52:35;7.90;;;6.50;;
2396;SDS011;1209;48.410;9.054;2023-02-28T08:55:00;13.10;;;8.60;;
2396;SDS011;1209;48.410;9.054;2023-02-28T08:57:25;11.93;;;6.30;;
2396;SDS011;1209;48.410;9.054;2023-02-28T08:59:51;8.17;;;6.77;;
2396;SDS011;1209;48.410;9.054;2023-02-28T09:02:17;8.20;;;7.20;;
2396;SDS011;1209;48.410;9.054;2023-02-28T09:04:42;11.40;;;7.60;;
2396;SDS011;1209;48.410;9.054;2023-02-28T09:07:10;8.98;;;6.55;;
2396;SDS011;1209;48.410;9.054;2023-02-28T09:09:35;20.10;;;11.47;;
2396;SDS011;1209;48.410;9.054;2023-02-28T09:12:01;29.17;;;12.90;;
2396;SDS011;1209;48.410;9.054;2023-02-28T09:14:27;24.83;;;11.17;;
2396;SDS011;1209;48.410;9.054;2023-02-28T09:16:52;49.93;;;18.53;;
2396;SDS011;1209;48.410;9.054;2023-02-28T09:19:17;23.80;;;9.60;;
2396;SDS011;1209;48.410;9.054;2023-02-28T09:21:42;13.53;;;7.03;;
2396;SDS011;1209;48.410;9.054;2023-02-28T09:24:08;23.73;;;10.30;;
2396;SDS011;1209;48.410;9.054;2023-02-28T09:26:33;16.43;;;6.90;;
2396;SDS011;1209;48.410;9.054;2023-02-28T09:28:59;18.83;;;10.27;;
2396;SDS011;1209;48.410;9.054;2023-02-28T09:31:25;11.50;;;7.70;;
2396;SDS011;1209;48.410;9.054;2023-02-28T09:33:53;10.43;;;6.25;;
2396;SDS011;1209;48.410;9.054;2023-02-28T09:36:20;14.70;;;7.38;;
2396;SDS011;1209;48.410;9.054;2023-02-28T09:38:47;12.95;;;7.47;;
2396;SDS011;1209;48.410;9.054;2023-02-28T09:41:14;12.70;;;7.60;;
2396;SDS011;1209;48.410;9.054;2023-02-28T09:44:00;11.80;;;6.95;;
2396;SDS011;1209;48.410;9.054;2023-02-28T09:49:02;10.05;;;6.93;;
2396;SDS011;1209;48.410;9.054;2023-02-28T09:51:40;8.77;;;7.15;;
2396;SDS011;1209;48.410;9.054;2023-02-28T09:54:23;9.60;;;6.35;;
2396;SDS011;1209;48.410;9.054;2023-02-28T10:05:27;10.90;;;7.35;;
2396;SDS011;1209;48.410;9.054;2023-02-28T10:08:00;11.50;;;7.80;;
2396;SDS011;1209;48.410;9.054;2023-02-28T10:10:34;8.77;;;6.95;;
2396;SDS011;1209;48.410;9.054;2023-02-28T10:13:12;13.45;;;7.32;;
2396;SDS011;1209;48.410;9.054;2023-02-28T10:15:41;10.27;;;7.35;;
2396;SDS011;1209;48.410;9.054;2023-02-28T10:18:11;17.23;;;7.90;;
2396;SDS011;1209;48.410;9.054;2023-02-28T10:20:39;10.05;;;7.07;;
2396;SDS011;1209;48.410;9.054;2023-02-28T10:23:12;11.23;;;7.03;;
2396;SDS011;1209;48.410;9.054;2023-02-28T10:25:43;14.55;;;9.10;;
2396;SDS011;1209;48.410;9.054;2023-02-28T10:28:14;13.55;;;8.68;;
2396;SDS011;1209;48.410;9.054;2023-02-28T10:30:43;19.55;;;11.57;;
2396;SDS011;1209;48.410;9.054;2023-02-28T10:33:23;14.52;;;8.85;;
2396;SDS011;1209;48.410;9.054;2023-02-28T10:35:50;25.30;;;12.05;;
2396;SDS011;1209;48.410;9.054;2023-02-28T10:38:38;24.45;;;11.60;;
2396;SDS011;1209;48.410;9.054;2023-02-28T10:41:07;18.50;;;10.07;;
2396;SDS011;1209;48.410;9.054;2023-02-28T10:43:34;14.93;;;8.10;;
2396;SDS011;1209;48.410;9.054;2023-02-28T10:48:39;14.00;;;9.30;;
2396;SDS011;1209;48.410;9.054;2023-02-28T10:51:06;13.23;;;9.02;;
2396;SDS011;1209;48.410;9.054;2023-02-28T10:58:56;16.30;;;9.23;;
2396;SDS011;1209;48.410;9.054;2023-02-28T11:04:04;24.60;;;12.82;;
2396;SDS011;1209;48.410;9.054;2023-02-28T11:09:50;19.25;;;11.18;;
2396;SDS011;1209;48.410;9.054;2023-02-28T11:12:21;21.00;;;11.75;;
2396;SDS011;1209;48.410;9.054;2023-02-28T11:14:52;17.02;;;10.10;;
2396;SDS011;1209;48.410;9.054;2023-02-28T11:17:27;16.60;;;9.60;;
2396;SDS011;1209;48.410;9.054;2023-02-28T11:19:55;23.38;;;9.85;;
2396;SDS011;1209;48.410;9.054;2023-02-28T11:22:25;14.30;;;9.18;;
2396;SDS011;1209;48.410;9.054;2023-02-28T11:24:54;18.52;;;9.38;;
2396;SDS011;1209;48.410;9.054;2023-02-28T11:27:26;10.77;;;8.02;;
2396;SDS011;1209;48.410;9.054;2023-02-28T11:30:43;10.93;;;8.50;;
2396;SDS011;1209;48.410;9.054;2023-02-28T11:33:39;19.90;;;7.82;;
2396;SDS011;1209;48.410;9.054;2023-02-28T11:36:19;10.43;;;6.95;;
2396;SDS011;1209;48.410;9.054;2023-02-28T11:38:50;11.23;;;7.70;;
2396;SDS011;1209;48.410;9.054;2023-02-28T11:46:52;17.55;;;10.55;;
2396;SDS011;1209;48.410;9.054;2023-02-28T11:50:01;19.75;;;9.68;;
2396;SDS011;1209;48.410;9.054;2023-02-28T11:52:34;22.83;;;11.43;;
2396;SDS011;1209;48.410;9.054;2023-02-28T11:55:27;27.88;;;12.93;;
2396;SDS011;1209;48.410;9.054;2023-02-28T12:03:07;31.73;;;13.43;;
2396;SDS011;1209;48.410;9.054;2023-02-28T12:08:47;18.50;;;9.55;;
2396;SDS011;1209;48.410;9.054;2023-02-28T12:11:26;15.73;;;9.23;;
2396;SDS011;1209;48.410;9.054;2023-02-28T12:19:10;15.00;;;9.20;;
2396;SDS011;1209;48.410;9.054;2023-02-28T12:21:54;16.38;;;9.52;;
2396;SDS011;1209;48.410;9.054;2023-02-28T12:24:39;13.50;;;9.50;;
2396;SDS011;1209;48.410;9.054;2023-02-28T12:27:18;15.25;;;8.20;;
2396;SDS011;1209;48.410;9.054;2023-02-28T12:29:49;12.30;;;8.90;;
2396;SDS011;1209;48.410;9.054;2023-02-28T12:32:26;12.43;;;7.88;;
2396;SDS011;1209;48.410;9.054;2023-02-28T12:34:58;10.30;;;7.53;;
2396;SDS011;1209;48.410;9.054;2023-02-28T12:37:33;12.00;;;8.68;;
2396;SDS011;1209;48.410;9.054;2023-02-28T12:40:06;12.27;;;8.00;;
2396;SDS011;1209;48.410;9.054;2023-02-28T12:42:48;15.10;;;8.68;;
2396;SDS011;1209;48.410;9.054;2023-02-28T12:45:18;15.25;;;7.95;;
2396;SDS011;1209;48.410;9.054;2023-02-28T12:47:46;10.82;;;9.63;;
2396;SDS011;1209;48.410;9.054;2023-02-28T12:50:17;10.90;;;7.55;;
2396;SDS011;1209;48.410;9.054;2023-02-28T12:52:59;12.60;;;8.95;;
2396;SDS011;1209;48.410;9.054;2023-02-28T12:55:38;9.70;;;7.50;;
2396;SDS011;1209;48.410;9.054;2023-02-28T13:09:35;11.35;;;8.13;;
2396;SDS011;1209;48.410;9.054;2023-02-28T13:12:04;11.10;;;9.48;;
2396;SDS011;1209;48.410;9.054;2023-02-28T13:14:38;15.60;;;10.50;;
2396;SDS011;1209;48.410;9.054;2023-02-28T13:19:33;12.93;;;9.20;;
2396;SDS011;1209;48.410;9.054;2023-02-28T13:22:00;11.57;;;8.00;;
2396;SDS011;1209;48.410;9.054;2023-02-28T13:24:36;10.95;;;7.95;;
2396;SDS011;1209;48.410;9.054;2023-02-28T13:29:39;14.33;;;8.40;;
2396;SDS011;1209;48.410;9.054;2023-02-28T13:42:24;9.90;;;6.73;;
2396;SDS011;1209;48.410;9.054;2023-02-28T13:47:30;16.60;;;7.53;;
2396;SDS011;1209;48.410;9.054;2023-02-28T13:50:15;12.30;;;9.02;;
2396;SDS011;1209;48.410;9.054;2023-02-28T14:06:40;12.05;;;8.02;;
2396;SDS011;1209;48.410;9.054;2023-02-28T14:11:57;12.68;;;8.63;;
2396;SDS011;1209;48.410;9.054;2023-02-28T14:17:08;13.50;;;8.97;;
2396;SDS011;1209;48.410;9.054;2023-02-28T14:19:39;51.92;;;20.48;;
2396;SDS011;1209;48.410;9.054;2023-02-28T14:36:26;13.50;;;9.30;;
2396;SDS011;1209;48.410;9.054;2023-02-28T14:38:57;15.10;;;9.15;;
2396;SDS011;1209;48.410;9.054;2023-02-28T14:41:36;9.30;;;7.50;;
2396;SDS011;1209;48.410;9.054;2023-02-28T14:44:37;13.27;;;8.15;;
2396;SDS011;1209;48.410;9.054;2023-02-28T14:46:56;12.02;;;8.93;;
2396;SDS011;1209;48.410;9.054;2023-02-28T14:52:05;14.38;;;9.10;;
2396;SDS011;1209;48.410;9.054;2023-02-28T14:54:46;13.63;;;8.73;;
2396;SDS011;1209;48.410;9.054;2023-02-28T14:57:31;18.95;;;10.73;;
2396;SDS011;1209;48.410;9.054;2023-02-28T14:59:58;14.45;;;9.85;;
2396;SDS011;1209;48.410;9.054;2023-02-28T15:02:25;11.65;;;8.80;;
2396;SDS011;1209;48.410;9.054;2023-02-28T15:04:55;22.80;;;11.10;;
2396;SDS011;1209;48.410;9.054;2023-02-28T15:07:21;11.35;;;7.63;;
2396;SDS011;1209;48.410;9.054;2023-02-28T15:10:15;12.20;;;8.95;;
2396;SDS011;1209;48.410;9.054;2023-02-28T15:12:49;11.82;;;7.88;;
2396;SDS011;1209;48.410;9.054;2023-02-28T15:15:24;11.88;;;8.43;;
2396;SDS011;1209;48.410;9.054;2023-02-28T15:17:58;12.20;;;9.32;;
2396;SDS011;1209;48.410;9.054;2023-02-28T15:20:25;11.68;;;7.13;;
2396;SDS011;1209;48.410;9.054;2023-02-28T15:22:52;12.50;;;7.07;;
2396;SDS011;1209;48.410;9.054;2023-02-28T15:25:21;14.00;;;9.20;;
2396;SDS011;1209;48.410;9.054;2023-02-28T15:27:52;18.23;;;11.35;;
2396;SDS011;1209;48.410;9.054;2023-02-28T15:33:03;13.38;;;8.80;;
2396;SDS011;1209;48.410;9.054;2023-02-28T15:35:30;10.98;;;7.65;;
2396;SDS011;1209;48.410;9.054;2023-02-28T15:38:01;14.73;;;8.63;;
2396;SDS011;1209;48.410;9.054;2023-02-28T15:40:31;31.13;;;16.38;;
2396;SDS011;1209;48.410;9.054;2023-02-28T15:45:51;12.70;;;8.02;;
2396;SDS011;1209;48.410;9.054;2023-02-28T15:48:44;18.10;;;11.00;;
2396;SDS011;1209;48.410;9.054;2023-02-28T15:51:16;15.88;;;8.77;;
2396;SDS011;1209;48.410;9.054;2023-02-28T15:53:48;17.63;;;8.93;;
2396;SDS011;1209;48.410;9.054;2023-02-28T15:56:25;12.88;;;7.82;;
2396;SDS011;1209;48.410;9.054;2023-02-28T15:58:55;13.40;;;7.85;;
2396;SDS011;1209;48.410;9.054;2023-02-28T16:01:29;47.50;;;18.10;;
2396;SDS011;1209;48.410;9.054;2023-02-28T16:03:59;42.67;;;15.77;;
2396;SDS011;1209;48.410;9.054;2023-02-28T16:06:34;48.38;;;17.70;;
2396;SDS011;1209;48.410;9.054;2023-02-28T16:09:09;20.73;;;11.25;;
2396;SDS011;1209;48.410;9.054;2023-02-28T16:11:38;21.48;;;11.20;;
2396;SDS011;1209;48.410;9.054;2023-02-28T16:14:09;23.10;;;12.40;;
2396;SDS011;1209;48.410;9.054;2023-02-28T16:16:41;14.82;;;8.90;;
2396;SDS011;1209;48.410;9.054;2023-02-28T16:19:09;10.93;;;7.20;;
2396;SDS011;1209;48.410;9.054;2023-02-28T16:21:34;12.90;;;7.90;;
2396;SDS011;1209;48.410;9.054;2023-02-28T16:23:59;23.67;;;10.70;;
2396;SDS011;1209;48.410;9.054;2023-02-28T16:26:24;13.13;;;9.23;;
2396;SDS011;1209;48.410;9.054;2023-02-28T16:28:53;13.60;;;8.43;;
2396;SDS011;1209;48.410;9.054;2023-02-28T16:31:19;10.15;;;7.15;;
2396;SDS011;1209;48.410;9.054;2023-02-28T16:33:45;19.05;;;11.27;;
2396;SDS011;1209;48.410;9.054;2023-02-28T16:36:21;15.77;;;8.87;;
2396;SDS011;1209;48.410;9.054;2023-02-28T16:38:51;13.88;;;9.00;;
2396;SDS011;1209;48.410;9.054;2023-02-28T16:41:20;9.70;;;6.60;;
2396;SDS011;1209;48.410;9.054;2023-02-28T16:43:50;14.93;;;7.13;;
2396;SDS011;1209;48.410;9.054;2023-02-28T16:46:17;13.82;;;9.02;;
2396;SDS011;1209;48.410;9.054;2023-02-28T16:48:44;14.88;;;8.80;;
2396;SDS011;1209;48.410;9.054;2023-02-28T16:51:11;21.23;;;10.30;;
2396;SDS011;1209;48.410;9.054;2023-02-28T16:53:38;12.57;;;8.30;;
2396;SDS011;1209;48.410;9.054;2023-02-28T16:56:03;19.53;;;8.30;;
2396;SDS011;1209;48.410;9.054;2023-02-28T16:58:30;13.10;;;8.48;;
2396;SDS011;1209;48.410;9.054;2023-02-28T17:00:55;12.67;;;7.57;;
2396;SDS011;1209;48.410;9.054;2023-02-28T17:03:25;11.47;;;7.53;;
2396;SDS011;1209;48.410;9.054;2023-02-28T17:05:51;11.98;;;8.57;;
2396;SDS011;1209;48.410;9.054;2023-02-28T17:08:17;26.27;;;9.63;;
2396;SDS011;1209;48.410;9.054;2023-02-28T17:10:42;15.50;;;7.80;;
2396;SDS011;1209;48.410;9.054;2023-02-28T17:13:08;14.60;;;9.33;;
2396;SDS011;1209;48.410;9.054;2023-02-28T17:15:34;10.13;;;8.02;;
2396;SDS011;1209;48.410;9.054;2023-02-28T17:18:00;11.70;;;8.50;;
2396;SDS011;1209;48.410;9.054;2023-02-28T17:20:25;15.23;;;9.10;;
2396;SDS011;1209;48.410;9.054;2023-02-28T17:22:51;17.60;;;10.50;;
2396;SDS011;1209;48.410;9.054;2023-02-28T17:25:18;17.30;;;10.52;;
2396;SDS011;1209;48.410;9.054;2023-02-28T17:27:43;17.23;;;11.63;;
2396;SDS011;1209;48.410;9.054;2023-02-28T17:30:31;15.17;;;10.73;;
2396;SDS011;1209;48.410;9.054;2023-02-28T17:32:57;31.17;;;16.08;;
2396;SDS011;1209;48.410;9.054;2023-02-28T17:35:23;28.80;;;15.47;;
2396;SDS011;1209;48.410;9.054;2023-02-28T17:37:49;37.60;;;19.90;;
2396;SDS011;1209;48.410;9.054;2023-02-28T17:40:15;30.93;;;17.50;;
2396;SDS011;1209;48.410;9.054;2023-02-28T17:42:42;24.83;;;13.65;;
2396;SDS011;1209;48.410;9.054;2023-02-28T17:45:08;24.00;;;15.43;;
2396;SDS011;1209;48.410;9.054;2023-02-28T17:47:34;19.60;;;11.03;;
2396;SDS011;1209;48.410;9.054;2023-02-28T17:50:00;14.30;;;10.03;;
2396;SDS011;1209;48.410;9.054;2023-02-28T17:52:25;11.97;;;8.50;;
2396;SDS011;1209;48.410;9.054;2023-02-28T17:54:50;15.77;;;10.47;;
2396;SDS011;1209;48.410;9.054;2023-02-28T17:57:15;24.00;;;9.07;;